Terminal Aerodrome Forecast
Issued by NWS Kansas City/Pleasant Hill, MO

Home | Current Version | Previous Version | Text Only | Print | Product List | Glossary On
Versions: 1 2 3 4 5 6 7 8 9 10 11 12 13 14 15 16 17 18 19 20 21 22 23 24
000
FTUS43 KEAX 241100 RRA
TAFMCI
TAF
KMCI 241141Z 2412/2512 33012KT P6SM -SN SCT008 OVC012
      TEMPO 2412/2414 5SM -SN BR OVC008
     FM241500 33014KT P6SM OVC014
     FM242000 30010KT P6SM OVC022
     FM250400 23007KT P6SM FEW025=

USA.gov is the U.S. government's official web portal to all federal, state and local government web resources and services.